Terminal Aerodrome Forecast
Issued by NWS Blacksburg, VA

Current Version | Previous Version | Text Only | Print | Product List | Glossary Off
Versions: 1 2 3 4 5 6 7 8 9 10 11 12 13 14 15 16 17 18 19

000
FTUS41 KRNK 071826 AAA
TAFBLF
TAF AMD
KBLF 071826Z 0718/0818 VRB04KT P6SM SCT017 BKN035
     FM080300 25003KT P6SM SCT040 BKN110
     FM080900 29007KT P6SM -SHSN BKN025 OVC050
     FM081300 29009KT P6SM OVC030
     FM081700 29011G23KT P6SM BKN060=

USA.gov is the U.S. government's official web portal to all federal, state and local government web resources and services.